sensor_id;sensor_type;location;lat;lon;timestamp;P1;durP1;ratioP1;P2;durP2;ratioP2
3347;SDS011;1687;49.540;8.574;2023-12-07T00:01:05;23.97;;;11.63;;
3347;SDS011;1687;49.540;8.574;2023-12-07T00:03:30;18.70;;;11.17;;
3347;SDS011;1687;49.540;8.574;2023-12-07T00:05:56;23.97;;;12.50;;
3347;SDS011;1687;49.540;8.574;2023-12-07T00:08:22;19.33;;;10.80;;
3347;SDS011;1687;49.540;8.574;2023-12-07T00:10:47;24.30;;;11.53;;
3347;SDS011;1687;49.540;8.574;2023-12-07T00:13:13;22.80;;;11.70;;
3347;SDS011;1687;49.540;8.574;2023-12-07T00:15:39;28.97;;;12.83;;
3347;SDS011;1687;49.540;8.574;2023-12-07T00:18:05;22.37;;;13.10;;
3347;SDS011;1687;49.540;8.574;2023-12-07T00:20:30;22.40;;;11.77;;
3347;SDS011;1687;49.540;8.574;2023-12-07T00:22:56;26.97;;;11.70;;
3347;SDS011;1687;49.540;8.574;2023-12-07T00:25:22;23.27;;;12.83;;
3347;SDS011;1687;49.540;8.574;2023-12-07T00:27:48;25.20;;;12.00;;
3347;SDS011;1687;49.540;8.574;2023-12-07T00:30:14;27.47;;;11.63;;
3347;SDS011;1687;49.540;8.574;2023-12-07T00:32:40;26.97;;;13.33;;
3347;SDS011;1687;49.540;8.574;2023-12-07T00:35:12;21.87;;;12.53;;
3347;SDS011;1687;49.540;8.574;2023-12-07T00:37:39;28.10;;;13.27;;
3347;SDS011;1687;49.540;8.574;2023-12-07T00:40:05;25.70;;;13.37;;
3347;SDS011;1687;49.540;8.574;2023-12-07T00:42:32;28.93;;;12.70;;
3347;SDS011;1687;49.540;8.574;2023-12-07T00:44:59;25.73;;;12.87;;
3347;SDS011;1687;49.540;8.574;2023-12-07T00:47:25;18.77;;;10.47;;
3347;SDS011;1687;49.540;8.574;2023-12-07T00:49:51;31.17;;;15.10;;
3347;SDS011;1687;49.540;8.574;2023-12-07T00:52:16;27.13;;;13.30;;
3347;SDS011;1687;49.540;8.574;2023-12-07T00:54:43;26.80;;;13.03;;
3347;SDS011;1687;49.540;8.574;2023-12-07T00:57:09;24.53;;;13.00;;
3347;SDS011;1687;49.540;8.574;2023-12-07T00:59:34;25.17;;;12.50;;
3347;SDS011;1687;49.540;8.574;2023-12-07T01:02:01;22.20;;;12.23;;
3347;SDS011;1687;49.540;8.574;2023-12-07T01:04:31;23.23;;;12.43;;
3347;SDS011;1687;49.540;8.574;2023-12-07T01:06:58;23.60;;;12.57;;
3347;SDS011;1687;49.540;8.574;2023-12-07T01:09:24;24.60;;;13.30;;
3347;SDS011;1687;49.540;8.574;2023-12-07T01:11:50;25.60;;;11.70;;
3347;SDS011;1687;49.540;8.574;2023-12-07T01:14:16;21.87;;;11.70;;
3347;SDS011;1687;49.540;8.574;2023-12-07T01:16:43;21.20;;;11.13;;
3347;SDS011;1687;49.540;8.574;2023-12-07T01:19:09;28.80;;;13.40;;
3347;SDS011;1687;49.540;8.574;2023-12-07T01:21:35;21.00;;;12.73;;
3347;SDS011;1687;49.540;8.574;2023-12-07T01:24:01;20.50;;;12.10;;
3347;SDS011;1687;49.540;8.574;2023-12-07T01:26:27;27.03;;;12.00;;
3347;SDS011;1687;49.540;8.574;2023-12-07T01:28:52;26.40;;;11.83;;
3347;SDS011;1687;49.540;8.574;2023-12-07T01:31:18;31.07;;;12.93;;
3347;SDS011;1687;49.540;8.574;2023-12-07T01:33:44;23.87;;;12.90;;
3347;SDS011;1687;49.540;8.574;2023-12-07T01:36:10;26.20;;;13.27;;
3347;SDS011;1687;49.540;8.574;2023-12-07T01:38:36;25.10;;;12.60;;
3347;SDS011;1687;49.540;8.574;2023-12-07T01:41:02;26.00;;;13.83;;
3347;SDS011;1687;49.540;8.574;2023-12-07T01:43:28;26.30;;;13.10;;
3347;SDS011;1687;49.540;8.574;2023-12-07T01:45:55;21.20;;;11.67;;
3347;SDS011;1687;49.540;8.574;2023-12-07T01:48:22;29.73;;;11.80;;
3347;SDS011;1687;49.540;8.574;2023-12-07T01:50:51;24.60;;;12.30;;
3347;SDS011;1687;49.540;8.574;2023-12-07T01:53:18;22.13;;;11.43;;
3347;SDS011;1687;49.540;8.574;2023-12-07T01:55:46;32.97;;;14.33;;
3347;SDS011;1687;49.540;8.574;2023-12-07T01:58:12;26.27;;;12.70;;
3347;SDS011;1687;49.540;8.574;2023-12-07T02:00:39;30.50;;;13.50;;
3347;SDS011;1687;49.540;8.574;2023-12-07T02:03:05;23.83;;;12.93;;
3347;SDS011;1687;49.540;8.574;2023-12-07T02:05:31;28.53;;;14.23;;
3347;SDS011;1687;49.540;8.574;2023-12-07T02:07:58;23.80;;;13.27;;
3347;SDS011;1687;49.540;8.574;2023-12-07T02:10:24;30.37;;;12.53;;
3347;SDS011;1687;49.540;8.574;2023-12-07T02:12:50;31.67;;;13.87;;
3347;SDS011;1687;49.540;8.574;2023-12-07T02:15:18;28.63;;;14.70;;
3347;SDS011;1687;49.540;8.574;2023-12-07T02:18:04;21.43;;;12.03;;
3347;SDS011;1687;49.540;8.574;2023-12-07T02:20:49;20.30;;;12.00;;
3347;SDS011;1687;49.540;8.574;2023-12-07T02:23:37;22.40;;;14.63;;
3347;SDS011;1687;49.540;8.574;2023-12-07T02:26:05;25.30;;;13.30;;
3347;SDS011;1687;49.540;8.574;2023-12-07T02:28:33;31.80;;;14.00;;
3347;SDS011;1687;49.540;8.574;2023-12-07T02:30:59;27.67;;;12.27;;
3347;SDS011;1687;49.540;8.574;2023-12-07T02:33:25;26.03;;;12.80;;
3347;SDS011;1687;49.540;8.574;2023-12-07T02:35:51;30.43;;;13.17;;
3347;SDS011;1687;49.540;8.574;2023-12-07T02:38:16;21.07;;;12.73;;
3347;SDS011;1687;49.540;8.574;2023-12-07T02:40:44;26.30;;;13.50;;
3347;SDS011;1687;49.540;8.574;2023-12-07T02:43:11;33.63;;;13.23;;
3347;SDS011;1687;49.540;8.574;2023-12-07T02:45:37;26.10;;;12.80;;
3347;SDS011;1687;49.540;8.574;2023-12-07T02:48:04;22.57;;;12.67;;
3347;SDS011;1687;49.540;8.574;2023-12-07T02:50:29;22.53;;;11.90;;
3347;SDS011;1687;49.540;8.574;2023-12-07T02:52:55;20.20;;;11.60;;
3347;SDS011;1687;49.540;8.574;2023-12-07T02:55:21;28.50;;;13.93;;
3347;SDS011;1687;49.540;8.574;2023-12-07T02:57:47;22.93;;;12.60;;
3347;SDS011;1687;49.540;8.574;2023-12-07T03:00:13;25.13;;;11.83;;
3347;SDS011;1687;49.540;8.574;2023-12-07T03:02:39;24.10;;;11.23;;
3347;SDS011;1687;49.540;8.574;2023-12-07T03:05:06;31.00;;;12.00;;
3347;SDS011;1687;49.540;8.574;2023-12-07T03:07:32;30.90;;;13.67;;
3347;SDS011;1687;49.540;8.574;2023-12-07T03:09:59;28.00;;;12.40;;
3347;SDS011;1687;49.540;8.574;2023-12-07T03:12:25;23.90;;;13.00;;
3347;SDS011;1687;49.540;8.574;2023-12-07T03:14:50;25.77;;;14.27;;
3347;SDS011;1687;49.540;8.574;2023-12-07T03:17:16;21.60;;;11.53;;
3347;SDS011;1687;49.540;8.574;2023-12-07T03:19:42;19.33;;;11.30;;
3347;SDS011;1687;49.540;8.574;2023-12-07T03:22:08;33.00;;;13.87;;
3347;SDS011;1687;49.540;8.574;2023-12-07T03:24:34;26.03;;;11.50;;
3347;SDS011;1687;49.540;8.574;2023-12-07T03:27:01;19.03;;;12.10;;
3347;SDS011;1687;49.540;8.574;2023-12-07T03:29:27;26.67;;;12.77;;
3347;SDS011;1687;49.540;8.574;2023-12-07T03:31:53;22.27;;;11.47;;
3347;SDS011;1687;49.540;8.574;2023-12-07T03:34:18;25.93;;;12.43;;
3347;SDS011;1687;49.540;8.574;2023-12-07T03:36:47;29.37;;;12.10;;
3347;SDS011;1687;49.540;8.574;2023-12-07T03:39:17;25.47;;;12.50;;
3347;SDS011;1687;49.540;8.574;2023-12-07T03:41:50;26.17;;;11.17;;
3347;SDS011;1687;49.540;8.574;2023-12-07T03:44:16;21.77;;;11.93;;
3347;SDS011;1687;49.540;8.574;2023-12-07T03:46:42;24.80;;;12.90;;
3347;SDS011;1687;49.540;8.574;2023-12-07T03:49:07;28.73;;;13.63;;
3347;SDS011;1687;49.540;8.574;2023-12-07T03:51:33;26.33;;;12.20;;
3347;SDS011;1687;49.540;8.574;2023-12-07T03:54:01;27.73;;;13.70;;
3347;SDS011;1687;49.540;8.574;2023-12-07T03:56:28;25.23;;;11.27;;
3347;SDS011;1687;49.540;8.574;2023-12-07T03:58:55;27.23;;;12.83;;
3347;SDS011;1687;49.540;8.574;2023-12-07T04:01:25;24.43;;;12.40;;
3347;SDS011;1687;49.540;8.574;2023-12-07T04:03:52;26.33;;;12.80;;
3347;SDS011;1687;49.540;8.574;2023-12-07T04:06:20;26.80;;;11.83;;
3347;SDS011;1687;49.540;8.574;2023-12-07T04:08:47;28.17;;;12.60;;
3347;SDS011;1687;49.540;8.574;2023-12-07T04:11:13;26.00;;;12.73;;
3347;SDS011;1687;49.540;8.574;2023-12-07T04:13:40;22.73;;;11.93;;
3347;SDS011;1687;49.540;8.574;2023-12-07T04:16:06;27.20;;;13.50;;
3347;SDS011;1687;49.540;8.574;2023-12-07T04:18:33;20.30;;;12.00;;
3347;SDS011;1687;49.540;8.574;2023-12-07T04:20:58;33.33;;;15.00;;
3347;SDS011;1687;49.540;8.574;2023-12-07T04:23:24;24.17;;;12.63;;
3347;SDS011;1687;49.540;8.574;2023-12-07T04:25:50;28.90;;;14.27;;
3347;SDS011;1687;49.540;8.574;2023-12-07T04:28:16;26.80;;;11.93;;
3347;SDS011;1687;49.540;8.574;2023-12-07T04:30:42;26.77;;;12.40;;
3347;SDS011;1687;49.540;8.574;2023-12-07T04:33:07;25.63;;;13.70;;
3347;SDS011;1687;49.540;8.574;2023-12-07T04:35:33;31.60;;;15.00;;
3347;SDS011;1687;49.540;8.574;2023-12-07T04:37:59;27.30;;;13.47;;
3347;SDS011;1687;49.540;8.574;2023-12-07T04:40:25;26.13;;;13.30;;
3347;SDS011;1687;49.540;8.574;2023-12-07T04:42:51;28.40;;;14.83;;
3347;SDS011;1687;49.540;8.574;2023-12-07T04:45:17;26.83;;;13.20;;
3347;SDS011;1687;49.540;8.574;2023-12-07T04:47:42;31.10;;;12.70;;
3347;SDS011;1687;49.540;8.574;2023-12-07T04:50:08;27.33;;;13.80;;
3347;SDS011;1687;49.540;8.574;2023-12-07T04:52:34;28.53;;;13.73;;
3347;SDS011;1687;49.540;8.574;2023-12-07T04:55:01;34.80;;;14.10;;
3347;SDS011;1687;49.540;8.574;2023-12-07T04:57:26;30.97;;;13.57;;
3347;SDS011;1687;49.540;8.574;2023-12-07T04:59:52;28.77;;;13.53;;
3347;SDS011;1687;49.540;8.574;2023-12-07T05:02:18;26.73;;;13.17;;
3347;SDS011;1687;49.540;8.574;2023-12-07T05:04:44;28.40;;;14.13;;
3347;SDS011;1687;49.540;8.574;2023-12-07T05:07:13;29.30;;;12.80;;
3347;SDS011;1687;49.540;8.574;2023-12-07T05:09:39;28.77;;;13.50;;
3347;SDS011;1687;49.540;8.574;2023-12-07T05:12:05;34.70;;;12.93;;
3347;SDS011;1687;49.540;8.574;2023-12-07T05:14:31;32.47;;;14.33;;
3347;SDS011;1687;49.540;8.574;2023-12-07T05:16:58;28.70;;;13.60;;
3347;SDS011;1687;49.540;8.574;2023-12-07T05:19:24;31.90;;;13.00;;
3347;SDS011;1687;49.540;8.574;2023-12-07T05:21:50;40.77;;;16.47;;
3347;SDS011;1687;49.540;8.574;2023-12-07T05:24:17;27.47;;;13.83;;
3347;SDS011;1687;49.540;8.574;2023-12-07T05:26:43;28.53;;;13.70;;
3347;SDS011;1687;49.540;8.574;2023-12-07T05:29:14;29.87;;;14.33;;
3347;SDS011;1687;49.540;8.574;2023-12-07T05:31:40;35.77;;;14.00;;
3347;SDS011;1687;49.540;8.574;2023-12-07T05:34:07;31.20;;;14.30;;
3347;SDS011;1687;49.540;8.574;2023-12-07T05:36:32;27.47;;;13.20;;
3347;SDS011;1687;49.540;8.574;2023-12-07T05:38:58;24.33;;;14.10;;
3347;SDS011;1687;49.540;8.574;2023-12-07T05:41:24;44.87;;;12.23;;
3347;SDS011;1687;49.540;8.574;2023-12-07T05:43:50;28.07;;;12.87;;
3347;SDS011;1687;49.540;8.574;2023-12-07T05:46:17;34.33;;;15.43;;
3347;SDS011;1687;49.540;8.574;2023-12-07T05:48:43;31.03;;;13.33;;
3347;SDS011;1687;49.540;8.574;2023-12-07T05:51:12;29.50;;;14.03;;
3347;SDS011;1687;49.540;8.574;2023-12-07T05:53:39;31.50;;;13.50;;
3347;SDS011;1687;49.540;8.574;2023-12-07T05:56:06;26.33;;;14.03;;
3347;SDS011;1687;49.540;8.574;2023-12-07T05:58:31;31.27;;;16.30;;
3347;SDS011;1687;49.540;8.574;2023-12-07T06:00:57;29.53;;;14.27;;
3347;SDS011;1687;49.540;8.574;2023-12-07T06:03:25;33.67;;;13.93;;
3347;SDS011;1687;49.540;8.574;2023-12-07T06:05:51;26.73;;;14.10;;
3347;SDS011;1687;49.540;8.574;2023-12-07T06:08:17;36.43;;;17.40;;
3347;SDS011;1687;49.540;8.574;2023-12-07T06:10:43;31.63;;;16.43;;
3347;SDS011;1687;49.540;8.574;2023-12-07T06:13:08;36.03;;;16.50;;
3347;SDS011;1687;49.540;8.574;2023-12-07T06:15:35;38.27;;;17.37;;
3347;SDS011;1687;49.540;8.574;2023-12-07T06:18:01;29.53;;;14.10;;
3347;SDS011;1687;49.540;8.574;2023-12-07T06:20:28;47.17;;;17.30;;
3347;SDS011;1687;49.540;8.574;2023-12-07T06:22:54;41.43;;;17.80;;
3347;SDS011;1687;49.540;8.574;2023-12-07T06:25:19;28.63;;;16.73;;
3347;SDS011;1687;49.540;8.574;2023-12-07T06:27:45;31.03;;;15.83;;
3347;SDS011;1687;49.540;8.574;2023-12-07T06:30:11;39.80;;;15.90;;
3347;SDS011;1687;49.540;8.574;2023-12-07T06:32:37;36.33;;;15.87;;
3347;SDS011;1687;49.540;8.574;2023-12-07T06:35:03;34.53;;;15.13;;
3347;SDS011;1687;49.540;8.574;2023-12-07T06:37:29;31.97;;;15.13;;
3347;SDS011;1687;49.540;8.574;2023-12-07T06:39:55;42.53;;;24.87;;
3347;SDS011;1687;49.540;8.574;2023-12-07T06:42:21;38.60;;;17.23;;
3347;SDS011;1687;49.540;8.574;2023-12-07T06:44:47;38.47;;;17.07;;
3347;SDS011;1687;49.540;8.574;2023-12-07T06:47:14;34.00;;;16.80;;
3347;SDS011;1687;49.540;8.574;2023-12-07T06:49:40;33.97;;;16.33;;
3347;SDS011;1687;49.540;8.574;2023-12-07T06:52:06;40.83;;;18.23;;
3347;SDS011;1687;49.540;8.574;2023-12-07T06:54:32;43.50;;;16.40;;
3347;SDS011;1687;49.540;8.574;2023-12-07T06:56:59;35.23;;;16.73;;
3347;SDS011;1687;49.540;8.574;2023-12-07T06:59:24;27.00;;;13.37;;
3347;SDS011;1687;49.540;8.574;2023-12-07T07:01:50;33.30;;;16.33;;
3347;SDS011;1687;49.540;8.574;2023-12-07T07:04:16;33.00;;;16.03;;
3347;SDS011;1687;49.540;8.574;2023-12-07T07:06:41;31.10;;;16.47;;
3347;SDS011;1687;49.540;8.574;2023-12-07T07:09:07;38.97;;;15.90;;
3347;SDS011;1687;49.540;8.574;2023-12-07T07:11:33;34.90;;;14.57;;
3347;SDS011;1687;49.540;8.574;2023-12-07T07:13:59;33.37;;;13.30;;
3347;SDS011;1687;49.540;8.574;2023-12-07T07:16:26;28.67;;;14.03;;
3347;SDS011;1687;49.540;8.574;2023-12-07T07:18:51;32.30;;;17.10;;
3347;SDS011;1687;49.540;8.574;2023-12-07T07:21:17;37.43;;;18.70;;
3347;SDS011;1687;49.540;8.574;2023-12-07T07:23:44;35.10;;;15.50;;
3347;SDS011;1687;49.540;8.574;2023-12-07T07:26:10;43.63;;;19.00;;
3347;SDS011;1687;49.540;8.574;2023-12-07T07:28:41;58.33;;;21.73;;
3347;SDS011;1687;49.540;8.574;2023-12-07T07:31:08;60.03;;;27.83;;
3347;SDS011;1687;49.540;8.574;2023-12-07T07:33:33;69.80;;;37.47;;
3347;SDS011;1687;49.540;8.574;2023-12-07T07:35:59;59.50;;;34.37;;
3347;SDS011;1687;49.540;8.574;2023-12-07T07:38:25;100.50;;;46.37;;
3347;SDS011;1687;49.540;8.574;2023-12-07T07:40:51;123.63;;;56.10;;
3347;SDS011;1687;49.540;8.574;2023-12-07T07:43:16;88.40;;;38.50;;
3347;SDS011;1687;49.540;8.574;2023-12-07T07:45:42;74.37;;;32.47;;
3347;SDS011;1687;49.540;8.574;2023-12-07T07:48:09;71.90;;;34.40;;
3347;SDS011;1687;49.540;8.574;2023-12-07T07:50:34;70.40;;;31.33;;
3347;SDS011;1687;49.540;8.574;2023-12-07T07:53:01;73.90;;;35.00;;
3347;SDS011;1687;49.540;8.574;2023-12-07T07:55:28;40.83;;;22.50;;
3347;SDS011;1687;49.540;8.574;2023-12-07T07:57:54;38.90;;;18.40;;
3347;SDS011;1687;49.540;8.574;2023-12-07T08:00:20;49.13;;;19.43;;
3347;SDS011;1687;49.540;8.574;2023-12-07T08:02:46;38.30;;;17.60;;
3347;SDS011;1687;49.540;8.574;2023-12-07T08:05:12;42.27;;;20.23;;
3347;SDS011;1687;49.540;8.574;2023-12-07T08:07:38;42.17;;;20.77;;
3347;SDS011;1687;49.540;8.574;2023-12-07T08:10:06;37.70;;;18.93;;
3347;SDS011;1687;49.540;8.574;2023-12-07T08:12:33;45.17;;;21.00;;
3347;SDS011;1687;49.540;8.574;2023-12-07T08:15:00;43.20;;;21.40;;
3347;SDS011;1687;49.540;8.574;2023-12-07T08:17:26;47.43;;;19.73;;
3347;SDS011;1687;49.540;8.574;2023-12-07T08:19:52;40.53;;;17.10;;
3347;SDS011;1687;49.540;8.574;2023-12-07T08:22:18;30.80;;;17.10;;
3347;SDS011;1687;49.540;8.574;2023-12-07T08:24:45;33.97;;;14.57;;
3347;SDS011;1687;49.540;8.574;2023-12-07T08:27:11;30.63;;;14.90;;
3347;SDS011;1687;49.540;8.574;2023-12-07T08:29:36;43.97;;;16.80;;
3347;SDS011;1687;49.540;8.574;2023-12-07T08:32:02;36.57;;;16.87;;
3347;SDS011;1687;49.540;8.574;2023-12-07T08:34:29;31.07;;;14.30;;
3347;SDS011;1687;49.540;8.574;2023-12-07T08:36:55;33.53;;;17.40;;
3347;SDS011;1687;49.540;8.574;2023-12-07T08:39:22;36.20;;;15.33;;
3347;SDS011;1687;49.540;8.574;2023-12-07T08:41:48;37.70;;;16.67;;
3347;SDS011;1687;49.540;8.574;2023-12-07T08:44:13;42.97;;;17.70;;
3347;SDS011;1687;49.540;8.574;2023-12-07T08:46:39;43.47;;;17.77;;
3347;SDS011;1687;49.540;8.574;2023-12-07T08:49:05;50.13;;;20.53;;
3347;SDS011;1687;49.540;8.574;2023-12-07T08:51:31;45.23;;;19.10;;
3347;SDS011;1687;49.540;8.574;2023-12-07T08:53:56;79.80;;;18.73;;
3347;SDS011;1687;49.540;8.574;2023-12-07T08:56:22;67.00;;;19.23;;
3347;SDS011;1687;49.540;8.574;2023-12-07T08:58:48;78.30;;;18.50;;
3347;SDS011;1687;49.540;8.574;2023-12-07T09:01:13;68.83;;;18.90;;
3347;SDS011;1687;49.540;8.574;2023-12-07T09:03:39;72.60;;;22.10;;
3347;SDS011;1687;49.540;8.574;2023-12-07T09:06:06;76.60;;;21.67;;
3347;SDS011;1687;49.540;8.574;2023-12-07T09:08:33;56.13;;;19.67;;
3347;SDS011;1687;49.540;8.574;2023-12-07T09:10:58;74.83;;;18.30;;
3347;SDS011;1687;49.540;8.574;2023-12-07T09:13:24;49.47;;;18.70;;
3347;SDS011;1687;49.540;8.574;2023-12-07T09:15:50;48.57;;;17.63;;
3347;SDS011;1687;49.540;8.574;2023-12-07T09:18:15;42.33;;;18.33;;
3347;SDS011;1687;49.540;8.574;2023-12-07T09:20:41;42.70;;;16.37;;
3347;SDS011;1687;49.540;8.574;2023-12-07T09:23:14;31.47;;;13.63;;
3347;SDS011;1687;49.540;8.574;2023-12-07T09:25:40;31.73;;;13.83;;
3347;SDS011;1687;49.540;8.574;2023-12-07T09:28:07;28.83;;;12.67;;
3347;SDS011;1687;49.540;8.574;2023-12-07T09:30:33;38.80;;;14.53;;
3347;SDS011;1687;49.540;8.574;2023-12-07T09:32:59;46.57;;;13.17;;
3347;SDS011;1687;49.540;8.574;2023-12-07T09:35:27;34.13;;;12.53;;
3347;SDS011;1687;49.540;8.574;2023-12-07T09:37:53;30.27;;;12.90;;
3347;SDS011;1687;49.540;8.574;2023-12-07T09:40:20;28.07;;;12.47;;
3347;SDS011;1687;49.540;8.574;2023-12-07T09:42:47;38.00;;;15.70;;
3347;SDS011;1687;49.540;8.574;2023-12-07T09:45:14;31.90;;;14.63;;
3347;SDS011;1687;49.540;8.574;2023-12-07T09:47:43;29.93;;;13.90;;
3347;SDS011;1687;49.540;8.574;2023-12-07T09:50:12;37.17;;;13.73;;
3347;SDS011;1687;49.540;8.574;2023-12-07T09:52:48;32.40;;;14.77;;
3347;SDS011;1687;49.540;8.574;2023-12-07T09:55:16;33.70;;;13.67;;
3347;SDS011;1687;49.540;8.574;2023-12-07T09:57:43;38.73;;;17.10;;
3347;SDS011;1687;49.540;8.574;2023-12-07T10:00:11;27.80;;;13.60;;
3347;SDS011;1687;49.540;8.574;2023-12-07T10:02:39;31.77;;;13.73;;
3347;SDS011;1687;49.540;8.574;2023-12-07T10:05:08;38.30;;;15.07;;
3347;SDS011;1687;49.540;8.574;2023-12-07T10:07:39;33.30;;;14.20;;
3347;SDS011;1687;49.540;8.574;2023-12-07T10:10:06;39.00;;;12.87;;
3347;SDS011;1687;49.540;8.574;2023-12-07T10:12:33;34.33;;;13.47;;
3347;SDS011;1687;49.540;8.574;2023-12-07T10:15:21;40.30;;;15.07;;
3347;SDS011;1687;49.540;8.574;2023-12-07T10:17:53;46.90;;;16.00;;
3347;SDS011;1687;49.540;8.574;2023-12-07T10:20:24;33.50;;;16.50;;
3347;SDS011;1687;49.540;8.574;2023-12-07T10:23:05;35.90;;;17.30;;
3347;SDS011;1687;49.540;8.574;2023-12-07T10:25:35;45.20;;;14.43;;
3347;SDS011;1687;49.540;8.574;2023-12-07T10:28:06;32.27;;;14.57;;
3347;SDS011;1687;49.540;8.574;2023-12-07T10:30:33;36.60;;;16.60;;
3347;SDS011;1687;49.540;8.574;2023-12-07T10:33:02;33.30;;;15.00;;
3347;SDS011;1687;49.540;8.574;2023-12-07T10:35:32;42.40;;;16.40;;
3347;SDS011;1687;49.540;8.574;2023-12-07T10:38:03;37.23;;;14.70;;
3347;SDS011;1687;49.540;8.574;2023-12-07T10:40:29;37.77;;;15.70;;
3347;SDS011;1687;49.540;8.574;2023-12-07T10:42:56;33.93;;;15.63;;
3347;SDS011;1687;49.540;8.574;2023-12-07T10:45:26;33.03;;;14.83;;
3347;SDS011;1687;49.540;8.574;2023-12-07T10:47:57;31.80;;;14.63;;
3347;SDS011;1687;49.540;8.574;2023-12-07T10:50:33;32.60;;;15.67;;
3347;SDS011;1687;49.540;8.574;2023-12-07T10:53:08;39.90;;;15.83;;
3347;SDS011;1687;49.540;8.574;2023-12-07T10:55:40;33.27;;;16.27;;
3347;SDS011;1687;49.540;8.574;2023-12-07T10:58:12;39.77;;;15.87;;
3347;SDS011;1687;49.540;8.574;2023-12-07T11:00:43;36.83;;;16.50;;
3347;SDS011;1687;49.540;8.574;2023-12-07T11:03:13;32.30;;;15.73;;
3347;SDS011;1687;49.540;8.574;2023-12-07T11:05:41;38.83;;;16.13;;
3347;SDS011;1687;49.540;8.574;2023-12-07T11:08:09;32.77;;;16.03;;
3347;SDS011;1687;49.540;8.574;2023-12-07T11:13:36;37.50;;;17.93;;
3347;SDS011;1687;49.540;8.574;2023-12-07T11:16:03;34.57;;;15.73;;
3347;SDS011;1687;49.540;8.574;2023-12-07T11:18:29;39.23;;;16.60;;
3347;SDS011;1687;49.540;8.574;2023-12-07T11:20:56;38.03;;;16.37;;
3347;SDS011;1687;49.540;8.574;2023-12-07T11:23:23;39.30;;;18.37;;
3347;SDS011;1687;49.540;8.574;2023-12-07T11:25:49;41.33;;;15.87;;
3347;SDS011;1687;49.540;8.574;2023-12-07T11:28:17;49.17;;;16.90;;
3347;SDS011;1687;49.540;8.574;2023-12-07T11:30:46;35.40;;;14.60;;
3347;SDS011;1687;49.540;8.574;2023-12-07T11:33:12;47.87;;;17.80;;
3347;SDS011;1687;49.540;8.574;2023-12-07T11:39:26;35.10;;;16.40;;
3347;SDS011;1687;49.540;8.574;2023-12-07T11:41:40;34.87;;;14.90;;
3347;SDS011;1687;49.540;8.574;2023-12-07T11:44:09;32.07;;;13.50;;
3347;SDS011;1687;49.540;8.574;2023-12-07T11:46:37;35.27;;;15.60;;
3347;SDS011;1687;49.540;8.574;2023-12-07T11:49:03;35.10;;;14.67;;
3347;SDS011;1687;49.540;8.574;2023-12-07T11:51:30;29.33;;;13.43;;
3347;SDS011;1687;49.540;8.574;2023-12-07T11:53:56;28.67;;;12.73;;
3347;SDS011;1687;49.540;8.574;2023-12-07T11:56:22;31.40;;;14.60;;
3347;SDS011;1687;49.540;8.574;2023-12-07T11:58:48;25.60;;;12.07;;
3347;SDS011;1687;49.540;8.574;2023-12-07T12:01:14;33.03;;;13.87;;
3347;SDS011;1687;49.540;8.574;2023-12-07T12:03:42;27.63;;;14.37;;
3347;SDS011;1687;49.540;8.574;2023-12-07T12:06:08;34.70;;;15.80;;
3347;SDS011;1687;49.540;8.574;2023-12-07T12:08:36;37.23;;;17.07;;
3347;SDS011;1687;49.540;8.574;2023-12-07T12:11:02;34.47;;;14.47;;
3347;SDS011;1687;49.540;8.574;2023-12-07T12:13:33;35.43;;;14.00;;
3347;SDS011;1687;49.540;8.574;2023-12-07T12:16:00;27.50;;;13.13;;
3347;SDS011;1687;49.540;8.574;2023-12-07T12:18:27;35.03;;;14.67;;
3347;SDS011;1687;49.540;8.574;2023-12-07T12:20:54;32.70;;;15.23;;
3347;SDS011;1687;49.540;8.574;2023-12-07T12:23:20;32.43;;;12.50;;
3347;SDS011;1687;49.540;8.574;2023-12-07T12:25:46;28.60;;;13.63;;
3347;SDS011;1687;49.540;8.574;2023-12-07T12:28:14;27.57;;;13.57;;
3347;SDS011;1687;49.540;8.574;2023-12-07T12:30:43;33.80;;;14.27;;
3347;SDS011;1687;49.540;8.574;2023-12-07T12:33:09;31.83;;;14.80;;
3347;SDS011;1687;49.540;8.574;2023-12-07T12:35:35;27.20;;;14.20;;
3347;SDS011;1687;49.540;8.574;2023-12-07T12:38:00;29.10;;;13.17;;
3347;SDS011;1687;49.540;8.574;2023-12-07T12:40:27;34.67;;;13.83;;
3347;SDS011;1687;49.540;8.574;2023-12-07T12:42:56;32.63;;;13.93;;
3347;SDS011;1687;49.540;8.574;2023-12-07T12:45:23;33.57;;;15.13;;
3347;SDS011;1687;49.540;8.574;2023-12-07T12:47:49;29.40;;;15.20;;
3347;SDS011;1687;49.540;8.574;2023-12-07T12:50:35;42.47;;;15.63;;
3347;SDS011;1687;49.540;8.574;2023-12-07T12:53:06;33.33;;;14.30;;
3347;SDS011;1687;49.540;8.574;2023-12-07T12:55:36;34.10;;;14.13;;
3347;SDS011;1687;49.540;8.574;2023-12-07T12:58:03;34.90;;;14.80;;
3347;SDS011;1687;49.540;8.574;2023-12-07T13:00:32;39.10;;;16.13;;
3347;SDS011;1687;49.540;8.574;2023-12-07T13:02:59;38.93;;;18.10;;
3347;SDS011;1687;49.540;8.574;2023-12-07T13:05:28;31.10;;;13.40;;
3347;SDS011;1687;49.540;8.574;2023-12-07T13:07:54;36.83;;;15.90;;
3347;SDS011;1687;49.540;8.574;2023-12-07T13:10:19;33.30;;;15.33;;
3347;SDS011;1687;49.540;8.574;2023-12-07T13:12:45;36.07;;;15.20;;
3347;SDS011;1687;49.540;8.574;2023-12-07T13:15:11;35.00;;;15.90;;
3347;SDS011;1687;49.540;8.574;2023-12-07T13:17:38;38.83;;;14.87;;
3347;SDS011;1687;49.540;8.574;2023-12-07T13:20:06;34.63;;;15.73;;
3347;SDS011;1687;49.540;8.574;2023-12-07T13:22:41;42.00;;;16.80;;
3347;SDS011;1687;49.540;8.574;2023-12-07T13:25:08;29.73;;;13.70;;
3347;SDS011;1687;49.540;8.574;2023-12-07T13:27:34;36.03;;;16.37;;
3347;SDS011;1687;49.540;8.574;2023-12-07T13:30:01;41.57;;;17.03;;
3347;SDS011;1687;49.540;8.574;2023-12-07T13:32:31;36.03;;;16.17;;
3347;SDS011;1687;49.540;8.574;2023-12-07T13:34:59;38.67;;;14.67;;
3347;SDS011;1687;49.540;8.574;2023-12-07T13:37:26;31.60;;;14.73;;
3347;SDS011;1687;49.540;8.574;2023-12-07T13:39:52;39.37;;;18.60;;
3347;SDS011;1687;49.540;8.574;2023-12-07T13:42:22;36.87;;;16.43;;
3347;SDS011;1687;49.540;8.574;2023-12-07T13:44:51;30.23;;;13.50;;
3347;SDS011;1687;49.540;8.574;2023-12-07T13:47:22;39.97;;;17.20;;
3347;SDS011;1687;49.540;8.574;2023-12-07T13:49:59;34.97;;;15.90;;
3347;SDS011;1687;49.540;8.574;2023-12-07T13:52:25;44.17;;;17.43;;
3347;SDS011;1687;49.540;8.574;2023-12-07T13:54:53;37.33;;;15.67;;
3347;SDS011;1687;49.540;8.574;2023-12-07T13:57:20;34.20;;;15.73;;
3347;SDS011;1687;49.540;8.574;2023-12-07T13:59:49;40.87;;;16.67;;
3347;SDS011;1687;49.540;8.574;2023-12-07T14:02:15;34.13;;;15.73;;
3347;SDS011;1687;49.540;8.574;2023-12-07T14:04:42;35.83;;;14.63;;
3347;SDS011;1687;49.540;8.574;2023-12-07T14:07:08;38.93;;;15.27;;
3347;SDS011;1687;49.540;8.574;2023-12-07T14:09:43;39.90;;;16.87;;
3347;SDS011;1687;49.540;8.574;2023-12-07T14:12:11;34.50;;;15.30;;
3347;SDS011;1687;49.540;8.574;2023-12-07T14:14:39;38.60;;;16.50;;
3347;SDS011;1687;49.540;8.574;2023-12-07T14:17:10;33.47;;;16.83;;
3347;SDS011;1687;49.540;8.574;2023-12-07T14:19:39;34.10;;;14.33;;
3347;SDS011;1687;49.540;8.574;2023-12-07T14:22:05;35.80;;;16.30;;
3347;SDS011;1687;49.540;8.574;2023-12-07T14:24:31;48.43;;;15.50;;
3347;SDS011;1687;49.540;8.574;2023-12-07T14:26:57;44.53;;;16.70;;
3347;SDS011;1687;49.540;8.574;2023-12-07T14:29:23;45.17;;;16.23;;
3347;SDS011;1687;49.540;8.574;2023-12-07T14:31:50;39.10;;;15.97;;
3347;SDS011;1687;49.540;8.574;2023-12-07T14:34:17;35.83;;;17.33;;
3347;SDS011;1687;49.540;8.574;2023-12-07T14:36:43;38.77;;;15.47;;
3347;SDS011;1687;49.540;8.574;2023-12-07T14:39:13;33.33;;;16.03;;
3347;SDS011;1687;49.540;8.574;2023-12-07T14:41:45;28.80;;;13.40;;
3347;SDS011;1687;49.540;8.574;2023-12-07T14:44:15;35.60;;;13.00;;
3347;SDS011;1687;49.540;8.574;2023-12-07T14:46:42;32.83;;;15.33;;
3347;SDS011;1687;49.540;8.574;2023-12-07T14:49:09;34.53;;;13.47;;
3347;SDS011;1687;49.540;8.574;2023-12-07T14:51:39;46.90;;;16.50;;
3347;SDS011;1687;49.540;8.574;2023-12-07T14:54:06;33.13;;;14.47;;